sensor_id;sensor_type;location;lat;lon;timestamp;P1;durP1;ratioP1;P2;durP2;ratioP2
52031;SDS011;38044;45.148;39.604;2023-08-21T00:00:10;15.35;;;6.85;;
52031;SDS011;38044;45.148;39.604;2023-08-21T00:02:38;14.07;;;7.10;;
52031;SDS011;38044;45.148;39.604;2023-08-21T00:05:04;12.35;;;6.55;;
52031;SDS011;38044;45.148;39.604;2023-08-21T00:07:31;13.25;;;6.30;;
52031;SDS011;38044;45.148;39.604;2023-08-21T00:09:57;12.20;;;6.27;;
52031;SDS011;38044;45.148;39.604;2023-08-21T00:12:23;14.13;;;6.85;;
52031;SDS011;38044;45.148;39.604;2023-08-21T00:14:49;13.35;;;6.63;;
52031;SDS011;38044;45.148;39.604;2023-08-21T00:17:14;14.00;;;7.27;;
52031;SDS011;38044;45.148;39.604;2023-08-21T00:19:40;11.95;;;6.45;;
52031;SDS011;38044;45.148;39.604;2023-08-21T00:22:06;11.15;;;6.60;;
52031;SDS011;38044;45.148;39.604;2023-08-21T00:24:32;13.47;;;7.27;;
52031;SDS011;38044;45.148;39.604;2023-08-21T00:26:58;10.88;;;6.88;;
52031;SDS011;38044;45.148;39.604;2023-08-21T00:29:24;12.17;;;6.50;;
52031;SDS011;38044;45.148;39.604;2023-08-21T00:31:49;11.63;;;6.90;;
52031;SDS011;38044;45.148;39.604;2023-08-21T00:34:15;12.35;;;6.97;;
52031;SDS011;38044;45.148;39.604;2023-08-21T00:36:41;15.37;;;6.80;;
52031;SDS011;38044;45.148;39.604;2023-08-21T00:39:07;13.85;;;7.50;;
52031;SDS011;38044;45.148;39.604;2023-08-21T00:41:33;16.58;;;7.53;;
52031;SDS011;38044;45.148;39.604;2023-08-21T00:43:59;12.80;;;7.63;;
52031;SDS011;38044;45.148;39.604;2023-08-21T00:46:25;15.27;;;7.50;;
52031;SDS011;38044;45.148;39.604;2023-08-21T00:48:51;16.88;;;7.38;;
52031;SDS011;38044;45.148;39.604;2023-08-21T00:51:17;14.68;;;7.45;;
52031;SDS011;38044;45.148;39.604;2023-08-21T00:53:43;13.80;;;8.10;;
52031;SDS011;38044;45.148;39.604;2023-08-21T00:56:10;15.50;;;8.02;;
52031;SDS011;38044;45.148;39.604;2023-08-21T00:58:36;14.13;;;7.32;;
52031;SDS011;38044;45.148;39.604;2023-08-21T01:01:02;16.25;;;7.70;;
52031;SDS011;38044;45.148;39.604;2023-08-21T01:03:30;16.93;;;7.60;;
52031;SDS011;38044;45.148;39.604;2023-08-21T01:05:56;14.27;;;7.73;;
52031;SDS011;38044;45.148;39.604;2023-08-21T01:11:19;15.80;;;7.90;;
52031;SDS011;38044;45.148;39.604;2023-08-21T01:14:03;17.30;;;8.38;;
52031;SDS011;38044;45.148;39.604;2023-08-21T01:16:39;14.00;;;7.88;;
52031;SDS011;38044;45.148;39.604;2023-08-21T01:19:09;13.45;;;7.75;;
52031;SDS011;38044;45.148;39.604;2023-08-21T01:21:44;18.67;;;8.80;;
52031;SDS011;38044;45.148;39.604;2023-08-21T01:24:10;13.60;;;7.73;;
52031;SDS011;38044;45.148;39.604;2023-08-21T01:26:36;19.20;;;7.78;;
52031;SDS011;38044;45.148;39.604;2023-08-21T01:29:02;15.27;;;7.97;;
52031;SDS011;38044;45.148;39.604;2023-08-21T01:31:30;15.97;;;8.13;;
52031;SDS011;38044;45.148;39.604;2023-08-21T01:34:00;13.77;;;7.88;;
52031;SDS011;38044;45.148;39.604;2023-08-21T01:36:29;16.20;;;8.68;;
52031;SDS011;38044;45.148;39.604;2023-08-21T01:38:56;19.65;;;9.57;;
52031;SDS011;38044;45.148;39.604;2023-08-21T01:41:23;17.70;;;8.95;;
52031;SDS011;38044;45.148;39.604;2023-08-21T01:43:50;18.80;;;9.23;;
52031;SDS011;38044;45.148;39.604;2023-08-21T01:46:16;15.18;;;9.00;;
52031;SDS011;38044;45.148;39.604;2023-08-21T01:48:42;16.02;;;8.93;;
52031;SDS011;38044;45.148;39.604;2023-08-21T01:51:08;18.23;;;9.38;;
52031;SDS011;38044;45.148;39.604;2023-08-21T01:53:34;13.23;;;8.00;;
52031;SDS011;38044;45.148;39.604;2023-08-21T01:56:00;14.93;;;7.50;;
52031;SDS011;38044;45.148;39.604;2023-08-21T01:58:26;14.80;;;7.40;;
52031;SDS011;38044;45.148;39.604;2023-08-21T02:00:51;15.95;;;7.60;;
52031;SDS011;38044;45.148;39.604;2023-08-21T02:03:18;16.92;;;7.38;;
52031;SDS011;38044;45.148;39.604;2023-08-21T02:05:44;17.17;;;8.17;;
52031;SDS011;38044;45.148;39.604;2023-08-21T02:08:13;17.27;;;7.78;;
52031;SDS011;38044;45.148;39.604;2023-08-21T02:10:47;15.85;;;7.90;;
52031;SDS011;38044;45.148;39.604;2023-08-21T02:13:15;17.27;;;8.63;;
52031;SDS011;38044;45.148;39.604;2023-08-21T02:15:41;16.23;;;8.55;;
52031;SDS011;38044;45.148;39.604;2023-08-21T02:18:09;15.75;;;8.60;;
52031;SDS011;38044;45.148;39.604;2023-08-21T02:20:36;14.65;;;8.88;;
52031;SDS011;38044;45.148;39.604;2023-08-21T02:23:02;18.90;;;8.67;;
52031;SDS011;38044;45.148;39.604;2023-08-21T02:25:31;14.27;;;8.70;;
52031;SDS011;38044;45.148;39.604;2023-08-21T02:27:57;18.80;;;10.27;;
52031;SDS011;38044;45.148;39.604;2023-08-21T02:30:23;42.00;;;22.17;;
52031;SDS011;38044;45.148;39.604;2023-08-21T02:32:52;43.25;;;22.38;;
52031;SDS011;38044;45.148;39.604;2023-08-21T02:35:19;41.70;;;19.95;;
52031;SDS011;38044;45.148;39.604;2023-08-21T02:37:46;39.97;;;18.35;;
52031;SDS011;38044;45.148;39.604;2023-08-21T02:40:12;31.60;;;18.00;;
52031;SDS011;38044;45.148;39.604;2023-08-21T02:42:38;51.80;;;27.30;;
52031;SDS011;38044;45.148;39.604;2023-08-21T02:45:04;38.73;;;20.10;;
52031;SDS011;38044;45.148;39.604;2023-08-21T02:47:42;23.20;;;12.80;;
52031;SDS011;38044;45.148;39.604;2023-08-21T02:50:09;45.40;;;22.83;;
52031;SDS011;38044;45.148;39.604;2023-08-21T02:52:35;31.98;;;17.02;;
52031;SDS011;38044;45.148;39.604;2023-08-21T02:55:02;22.65;;;11.85;;
52031;SDS011;38044;45.148;39.604;2023-08-21T02:57:29;25.75;;;14.43;;
52031;SDS011;38044;45.148;39.604;2023-08-21T02:59:54;26.45;;;14.38;;
52031;SDS011;38044;45.148;39.604;2023-08-21T03:02:21;19.58;;;11.05;;
52031;SDS011;38044;45.148;39.604;2023-08-21T03:04:50;24.47;;;10.87;;
52031;SDS011;38044;45.148;39.604;2023-08-21T03:07:21;20.20;;;9.52;;
52031;SDS011;38044;45.148;39.604;2023-08-21T03:09:47;24.15;;;10.18;;
52031;SDS011;38044;45.148;39.604;2023-08-21T03:12:16;21.75;;;9.50;;
52031;SDS011;38044;45.148;39.604;2023-08-21T03:14:42;17.83;;;9.52;;
52031;SDS011;38044;45.148;39.604;2023-08-21T03:17:08;22.35;;;9.38;;
52031;SDS011;38044;45.148;39.604;2023-08-21T03:19:34;19.88;;;8.57;;
52031;SDS011;38044;45.148;39.604;2023-08-21T03:22:01;16.33;;;7.97;;
52031;SDS011;38044;45.148;39.604;2023-08-21T03:24:27;17.97;;;7.67;;
52031;SDS011;38044;45.148;39.604;2023-08-21T03:26:57;18.23;;;7.68;;
52031;SDS011;38044;45.148;39.604;2023-08-21T03:29:24;16.05;;;6.80;;
52031;SDS011;38044;45.148;39.604;2023-08-21T03:31:52;14.90;;;7.05;;
52031;SDS011;38044;45.148;39.604;2023-08-21T03:34:21;18.38;;;7.45;;
52031;SDS011;38044;45.148;39.604;2023-08-21T03:36:50;13.75;;;6.50;;
52031;SDS011;38044;45.148;39.604;2023-08-21T03:39:16;12.23;;;6.33;;
52031;SDS011;38044;45.148;39.604;2023-08-21T03:41:42;14.30;;;6.50;;
52031;SDS011;38044;45.148;39.604;2023-08-21T03:44:08;24.17;;;6.97;;
52031;SDS011;38044;45.148;39.604;2023-08-21T03:46:34;16.58;;;6.75;;
52031;SDS011;38044;45.148;39.604;2023-08-21T03:49:00;18.70;;;6.73;;
52031;SDS011;38044;45.148;39.604;2023-08-21T03:51:26;15.18;;;6.25;;
52031;SDS011;38044;45.148;39.604;2023-08-21T03:53:52;15.27;;;6.95;;
52031;SDS011;38044;45.148;39.604;2023-08-21T03:56:18;15.57;;;6.68;;
52031;SDS011;38044;45.148;39.604;2023-08-21T03:58:44;13.05;;;6.65;;
52031;SDS011;38044;45.148;39.604;2023-08-21T04:01:10;18.98;;;6.75;;
52031;SDS011;38044;45.148;39.604;2023-08-21T04:03:36;20.70;;;6.75;;
52031;SDS011;38044;45.148;39.604;2023-08-21T04:06:02;25.53;;;7.07;;
52031;SDS011;38044;45.148;39.604;2023-08-21T04:08:28;15.95;;;6.47;;
52031;SDS011;38044;45.148;39.604;2023-08-21T04:10:53;12.23;;;6.03;;
52031;SDS011;38044;45.148;39.604;2023-08-21T04:13:24;13.57;;;6.40;;
52031;SDS011;38044;45.148;39.604;2023-08-21T04:15:53;14.37;;;6.20;;
52031;SDS011;38044;45.148;39.604;2023-08-21T04:18:19;12.97;;;6.13;;
52031;SDS011;38044;45.148;39.604;2023-08-21T04:20:47;14.70;;;6.25;;
52031;SDS011;38044;45.148;39.604;2023-08-21T04:23:13;11.57;;;5.50;;
52031;SDS011;38044;45.148;39.604;2023-08-21T04:25:39;9.60;;;4.87;;
52031;SDS011;38044;45.148;39.604;2023-08-21T04:28:05;16.55;;;5.90;;
52031;SDS011;38044;45.148;39.604;2023-08-21T04:30:33;15.13;;;5.72;;
52031;SDS011;38044;45.148;39.604;2023-08-21T04:32:59;14.90;;;5.15;;
52031;SDS011;38044;45.148;39.604;2023-08-21T04:35:25;14.90;;;5.43;;
52031;SDS011;38044;45.148;39.604;2023-08-21T04:37:51;16.48;;;5.10;;
52031;SDS011;38044;45.148;39.604;2023-08-21T14:02:33;3.50;;;2.70;;
52031;SDS011;38044;45.148;39.604;2023-08-21T14:05:02;4.22;;;2.80;;
52031;SDS011;38044;45.148;39.604;2023-08-21T14:07:32;6.70;;;3.22;;
52031;SDS011;38044;45.148;39.604;2023-08-21T14:09:58;5.85;;;3.28;;
52031;SDS011;38044;45.148;39.604;2023-08-21T14:12:24;8.35;;;3.90;;
52031;SDS011;38044;45.148;39.604;2023-08-21T14:14:50;6.38;;;3.00;;
52031;SDS011;38044;45.148;39.604;2023-08-21T14:17:16;15.10;;;4.60;;
52031;SDS011;38044;45.148;39.604;2023-08-21T14:19:42;7.47;;;3.15;;
52031;SDS011;38044;45.148;39.604;2023-08-21T14:22:08;8.48;;;3.42;;
52031;SDS011;38044;45.148;39.604;2023-08-21T14:24:34;8.57;;;4.30;;
52031;SDS011;38044;45.148;39.604;2023-08-21T14:27:00;7.18;;;3.50;;
52031;SDS011;38044;45.148;39.604;2023-08-21T14:29:26;7.53;;;3.60;;
52031;SDS011;38044;45.148;39.604;2023-08-21T14:31:51;7.10;;;3.20;;
52031;SDS011;38044;45.148;39.604;2023-08-21T14:34:22;7.72;;;3.40;;
52031;SDS011;38044;45.148;39.604;2023-08-21T14:36:48;6.40;;;3.38;;
52031;SDS011;38044;45.148;39.604;2023-08-21T14:39:14;10.47;;;3.67;;
52031;SDS011;38044;45.148;39.604;2023-08-21T14:41:41;7.45;;;3.45;;
52031;SDS011;38044;45.148;39.604;2023-08-21T14:44:08;8.98;;;3.45;;
52031;SDS011;38044;45.148;39.604;2023-08-21T14:46:34;7.30;;;3.70;;
52031;SDS011;38044;45.148;39.604;2023-08-21T14:49:00;7.00;;;3.50;;
52031;SDS011;38044;45.148;39.604;2023-08-21T14:51:27;15.30;;;5.03;;
52031;SDS011;38044;45.148;39.604;2023-08-21T14:53:55;15.88;;;8.98;;
52031;SDS011;38044;45.148;39.604;2023-08-21T14:56:24;11.65;;;8.13;;
52031;SDS011;38044;45.148;39.604;2023-08-21T14:58:49;10.60;;;6.87;;
52031;SDS011;38044;45.148;39.604;2023-08-21T15:01:15;11.25;;;4.68;;
52031;SDS011;38044;45.148;39.604;2023-08-21T15:03:41;5.97;;;4.25;;
52031;SDS011;38044;45.148;39.604;2023-08-21T15:06:07;8.43;;;4.70;;
52031;SDS011;38044;45.148;39.604;2023-08-21T15:08:33;7.03;;;5.50;;
52031;SDS011;38044;45.148;39.604;2023-08-21T15:10:59;12.32;;;6.80;;
52031;SDS011;38044;45.148;39.604;2023-08-21T15:13:25;11.43;;;7.90;;
52031;SDS011;38044;45.148;39.604;2023-08-21T15:15:54;10.55;;;6.13;;
52031;SDS011;38044;45.148;39.604;2023-08-21T15:18:20;7.73;;;4.93;;
52031;SDS011;38044;45.148;39.604;2023-08-21T15:20:47;14.80;;;4.70;;
52031;SDS011;38044;45.148;39.604;2023-08-21T15:23:13;20.33;;;4.40;;
52031;SDS011;38044;45.148;39.604;2023-08-21T15:25:39;8.95;;;3.90;;
52031;SDS011;38044;45.148;39.604;2023-08-21T15:28:08;10.05;;;4.50;;
52031;SDS011;38044;45.148;39.604;2023-08-21T15:30:33;6.72;;;4.35;;
52031;SDS011;38044;45.148;39.604;2023-08-21T15:33:00;7.93;;;4.60;;
52031;SDS011;38044;45.148;39.604;2023-08-21T15:35:26;12.40;;;4.57;;
52031;SDS011;38044;45.148;39.604;2023-08-21T15:37:52;10.25;;;5.60;;
52031;SDS011;38044;45.148;39.604;2023-08-21T15:40:17;7.50;;;5.40;;
52031;SDS011;38044;45.148;39.604;2023-08-21T15:42:43;9.93;;;5.00;;
52031;SDS011;38044;45.148;39.604;2023-08-21T15:45:09;9.55;;;5.03;;
52031;SDS011;38044;45.148;39.604;2023-08-21T15:47:37;14.75;;;4.43;;
52031;SDS011;38044;45.148;39.604;2023-08-21T15:50:03;11.90;;;4.07;;
52031;SDS011;38044;45.148;39.604;2023-08-21T15:52:30;10.63;;;3.75;;
52031;SDS011;38044;45.148;39.604;2023-08-21T15:54:55;8.75;;;4.13;;
52031;SDS011;38044;45.148;39.604;2023-08-21T15:57:21;10.93;;;3.97;;
52031;SDS011;38044;45.148;39.604;2023-08-21T15:59:57;15.90;;;4.38;;
52031;SDS011;38044;45.148;39.604;2023-08-21T16:02:26;18.02;;;4.88;;
52031;SDS011;38044;45.148;39.604;2023-08-21T16:05:00;18.60;;;4.95;;
52031;SDS011;38044;45.148;39.604;2023-08-21T16:07:28;21.13;;;5.05;;
52031;SDS011;38044;45.148;39.604;2023-08-21T16:09:57;17.17;;;5.20;;
52031;SDS011;38044;45.148;39.604;2023-08-21T16:12:24;23.42;;;6.07;;
52031;SDS011;38044;45.148;39.604;2023-08-21T16:14:50;15.95;;;5.35;;
52031;SDS011;38044;45.148;39.604;2023-08-21T16:17:19;20.52;;;5.57;;
52031;SDS011;38044;45.148;39.604;2023-08-21T16:19:46;21.23;;;5.70;;
52031;SDS011;38044;45.148;39.604;2023-08-21T16:22:12;23.13;;;5.53;;
52031;SDS011;38044;45.148;39.604;2023-08-21T16:24:38;20.37;;;6.50;;
52031;SDS011;38044;45.148;39.604;2023-08-21T16:27:05;19.87;;;6.50;;
52031;SDS011;38044;45.148;39.604;2023-08-21T16:29:30;26.17;;;6.95;;
52031;SDS011;38044;45.148;39.604;2023-08-21T16:31:57;26.13;;;7.63;;
52031;SDS011;38044;45.148;39.604;2023-08-21T16:34:23;26.92;;;7.78;;
52031;SDS011;38044;45.148;39.604;2023-08-21T16:36:49;26.38;;;8.70;;
52031;SDS011;38044;45.148;39.604;2023-08-21T16:39:15;24.88;;;7.95;;
52031;SDS011;38044;45.148;39.604;2023-08-21T16:41:41;23.92;;;8.13;;
52031;SDS011;38044;45.148;39.604;2023-08-21T16:44:08;19.55;;;7.40;;
52031;SDS011;38044;45.148;39.604;2023-08-21T16:46:35;20.80;;;6.95;;
52031;SDS011;38044;45.148;39.604;2023-08-21T16:49:03;26.55;;;7.20;;
52031;SDS011;38044;45.148;39.604;2023-08-21T16:51:31;27.05;;;7.38;;
52031;SDS011;38044;45.148;39.604;2023-08-21T16:54:00;29.42;;;7.68;;
52031;SDS011;38044;45.148;39.604;2023-08-21T16:56:28;46.20;;;9.82;;
52031;SDS011;38044;45.148;39.604;2023-08-21T16:58:56;26.30;;;7.47;;
52031;SDS011;38044;45.148;39.604;2023-08-21T17:01:31;22.10;;;8.03;;
52031;SDS011;38044;45.148;39.604;2023-08-21T17:03:59;29.15;;;8.20;;
52031;SDS011;38044;45.148;39.604;2023-08-21T17:06:27;29.77;;;8.85;;
52031;SDS011;38044;45.148;39.604;2023-08-21T17:08:56;28.27;;;8.90;;
52031;SDS011;38044;45.148;39.604;2023-08-21T17:11:22;23.10;;;7.85;;
52031;SDS011;38044;45.148;39.604;2023-08-21T17:13:48;22.58;;;7.32;;
52031;SDS011;38044;45.148;39.604;2023-08-21T17:16:15;18.98;;;7.68;;
52031;SDS011;38044;45.148;39.604;2023-08-21T17:18:42;19.60;;;7.33;;
52031;SDS011;38044;45.148;39.604;2023-08-21T17:21:08;23.17;;;9.57;;
52031;SDS011;38044;45.148;39.604;2023-08-21T17:23:43;21.38;;;8.65;;
52031;SDS011;38044;45.148;39.604;2023-08-21T17:26:09;22.05;;;9.77;;
52031;SDS011;38044;45.148;39.604;2023-08-21T17:28:38;27.40;;;8.68;;
52031;SDS011;38044;45.148;39.604;2023-08-21T17:31:04;25.97;;;8.70;;
52031;SDS011;38044;45.148;39.604;2023-08-21T17:33:30;21.15;;;8.20;;
52031;SDS011;38044;45.148;39.604;2023-08-21T17:35:57;27.42;;;10.25;;
52031;SDS011;38044;45.148;39.604;2023-08-21T17:38:23;19.95;;;8.25;;
52031;SDS011;38044;45.148;39.604;2023-08-21T17:40:50;16.35;;;7.38;;
52031;SDS011;38044;45.148;39.604;2023-08-21T17:43:16;19.60;;;7.80;;
52031;SDS011;38044;45.148;39.604;2023-08-21T17:45:42;15.48;;;7.75;;
52031;SDS011;38044;45.148;39.604;2023-08-21T17:48:11;21.07;;;8.30;;
52031;SDS011;38044;45.148;39.604;2023-08-21T17:50:37;33.00;;;11.80;;
52031;SDS011;38044;45.148;39.604;2023-08-21T17:53:03;28.95;;;12.77;;
52031;SDS011;38044;45.148;39.604;2023-08-21T17:55:30;36.80;;;18.02;;
52031;SDS011;38044;45.148;39.604;2023-08-21T17:57:58;44.17;;;20.00;;
52031;SDS011;38044;45.148;39.604;2023-08-21T18:00:25;39.08;;;16.58;;
52031;SDS011;38044;45.148;39.604;2023-08-21T18:02:54;39.00;;;15.73;;
52031;SDS011;38044;45.148;39.604;2023-08-21T18:05:20;44.47;;;17.53;;
52031;SDS011;38044;45.148;39.604;2023-08-21T18:07:46;37.28;;;16.75;;
52031;SDS011;38044;45.148;39.604;2023-08-21T18:10:12;34.63;;;14.25;;
52031;SDS011;38044;45.148;39.604;2023-08-21T18:12:38;29.90;;;12.10;;
52031;SDS011;38044;45.148;39.604;2023-08-21T18:15:04;22.67;;;10.90;;
52031;SDS011;38044;45.148;39.604;2023-08-21T18:17:30;27.42;;;10.60;;
52031;SDS011;38044;45.148;39.604;2023-08-21T18:19:56;20.08;;;9.55;;
52031;SDS011;38044;45.148;39.604;2023-08-21T18:22:22;20.50;;;8.38;;
52031;SDS011;38044;45.148;39.604;2023-08-21T18:24:51;20.38;;;7.72;;
52031;SDS011;38044;45.148;39.604;2023-08-21T18:27:17;14.27;;;7.50;;
52031;SDS011;38044;45.148;39.604;2023-08-21T18:29:43;18.20;;;8.20;;
52031;SDS011;38044;45.148;39.604;2023-08-21T18:32:12;14.63;;;6.97;;
52031;SDS011;38044;45.148;39.604;2023-08-21T18:34:40;18.00;;;8.70;;
52031;SDS011;38044;45.148;39.604;2023-08-21T18:37:08;18.35;;;8.82;;
52031;SDS011;38044;45.148;39.604;2023-08-21T18:39:34;20.40;;;8.55;;
52031;SDS011;38044;45.148;39.604;2023-08-21T18:42:01;15.07;;;9.20;;
52031;SDS011;38044;45.148;39.604;2023-08-21T18:44:28;19.85;;;10.10;;
52031;SDS011;38044;45.148;39.604;2023-08-21T18:46:53;19.60;;;9.82;;
52031;SDS011;38044;45.148;39.604;2023-08-21T18:49:19;18.67;;;10.15;;
52031;SDS011;38044;45.148;39.604;2023-08-21T18:51:45;18.00;;;9.63;;
52031;SDS011;38044;45.148;39.604;2023-08-21T18:54:11;20.45;;;9.65;;
52031;SDS011;38044;45.148;39.604;2023-08-21T18:56:37;17.58;;;9.80;;
52031;SDS011;38044;45.148;39.604;2023-08-21T18:59:03;18.70;;;9.18;;
52031;SDS011;38044;45.148;39.604;2023-08-21T19:01:29;16.77;;;8.35;;
52031;SDS011;38044;45.148;39.604;2023-08-21T19:04:04;19.25;;;9.30;;
52031;SDS011;38044;45.148;39.604;2023-08-21T19:06:30;15.63;;;7.97;;
52031;SDS011;38044;45.148;39.604;2023-08-21T19:08:57;15.57;;;8.40;;
52031;SDS011;38044;45.148;39.604;2023-08-21T19:11:23;19.70;;;7.75;;
52031;SDS011;38044;45.148;39.604;2023-08-21T19:13:49;24.48;;;7.53;;
52031;SDS011;38044;45.148;39.604;2023-08-21T19:16:15;18.08;;;6.93;;
52031;SDS011;38044;45.148;39.604;2023-08-21T19:18:41;20.75;;;6.55;;
52031;SDS011;38044;45.148;39.604;2023-08-21T19:21:07;18.13;;;5.63;;
52031;SDS011;38044;45.148;39.604;2023-08-21T19:23:34;13.48;;;5.68;;
52031;SDS011;38044;45.148;39.604;2023-08-21T19:26:00;17.10;;;5.63;;
52031;SDS011;38044;45.148;39.604;2023-08-21T19:28:27;13.77;;;5.38;;
52031;SDS011;38044;45.148;39.604;2023-08-21T19:30:53;13.77;;;5.40;;
52031;SDS011;38044;45.148;39.604;2023-08-21T19:33:19;14.18;;;5.20;;
52031;SDS011;38044;45.148;39.604;2023-08-21T19:35:49;13.70;;;5.53;;
52031;SDS011;38044;45.148;39.604;2023-08-21T19:38:16;13.00;;;5.30;;
52031;SDS011;38044;45.148;39.604;2023-08-21T19:40:43;11.35;;;5.05;;
52031;SDS011;38044;45.148;39.604;2023-08-21T19:43:12;11.65;;;5.20;;
52031;SDS011;38044;45.148;39.604;2023-08-21T19:45:38;13.45;;;5.05;;
52031;SDS011;38044;45.148;39.604;2023-08-21T19:48:04;12.77;;;5.38;;
52031;SDS011;38044;45.148;39.604;2023-08-21T19:50:31;12.83;;;5.17;;
52031;SDS011;38044;45.148;39.604;2023-08-21T19:52:58;18.92;;;5.65;;
52031;SDS011;38044;45.148;39.604;2023-08-21T19:55:26;12.20;;;4.90;;
52031;SDS011;38044;45.148;39.604;2023-08-21T19:57:56;10.93;;;5.03;;
52031;SDS011;38044;45.148;39.604;2023-08-21T20:00:25;13.55;;;5.72;;
52031;SDS011;38044;45.148;39.604;2023-08-21T20:02:51;12.27;;;5.20;;
52031;SDS011;38044;45.148;39.604;2023-08-21T20:05:24;10.40;;;5.07;;
52031;SDS011;38044;45.148;39.604;2023-08-21T20:07:54;12.13;;;5.20;;
52031;SDS011;38044;45.148;39.604;2023-08-21T20:10:20;10.55;;;5.30;;
52031;SDS011;38044;45.148;39.604;2023-08-21T20:12:46;10.75;;;5.00;;
52031;SDS011;38044;45.148;39.604;2023-08-21T20:15:12;10.50;;;5.10;;
52031;SDS011;38044;45.148;39.604;2023-08-21T20:17:39;8.52;;;4.68;;
52031;SDS011;38044;45.148;39.604;2023-08-21T20:20:05;11.45;;;5.10;;
52031;SDS011;38044;45.148;39.604;2023-08-21T20:22:33;10.63;;;4.97;;
52031;SDS011;38044;45.148;39.604;2023-08-21T20:24:59;14.50;;;4.93;;
52031;SDS011;38044;45.148;39.604;2023-08-21T20:27:25;14.18;;;5.00;;
52031;SDS011;38044;45.148;39.604;2023-08-21T20:29:51;17.63;;;5.30;;
52031;SDS011;38044;45.148;39.604;2023-08-21T20:32:17;18.23;;;5.63;;
52031;SDS011;38044;45.148;39.604;2023-08-21T20:34:43;14.55;;;5.30;;
52031;SDS011;38044;45.148;39.604;2023-08-21T20:37:09;19.27;;;5.10;;
52031;SDS011;38044;45.148;39.604;2023-08-21T20:39:35;16.57;;;4.97;;
52031;SDS011;38044;45.148;39.604;2023-08-21T20:42:00;12.70;;;4.57;;
52031;SDS011;38044;45.148;39.604;2023-08-21T20:44:27;12.60;;;5.00;;
52031;SDS011;38044;45.148;39.604;2023-08-21T20:46:53;15.45;;;5.40;;
52031;SDS011;38044;45.148;39.604;2023-08-21T20:49:19;12.32;;;5.50;;
52031;SDS011;38044;45.148;39.604;2023-08-21T20:51:45;15.80;;;5.50;;
52031;SDS011;38044;45.148;39.604;2023-08-21T20:54:11;14.40;;;5.43;;
52031;SDS011;38044;45.148;39.604;2023-08-21T20:56:37;12.77;;;5.53;;
52031;SDS011;38044;45.148;39.604;2023-08-21T20:59:03;13.30;;;5.80;;
52031;SDS011;38044;45.148;39.604;2023-08-21T21:01:28;13.55;;;5.82;;
52031;SDS011;38044;45.148;39.604;2023-08-21T21:03:54;15.03;;;6.17;;
52031;SDS011;38044;45.148;39.604;2023-08-21T21:06:20;12.68;;;5.90;;
52031;SDS011;38044;45.148;39.604;2023-08-21T21:08:46;16.03;;;6.10;;
52031;SDS011;38044;45.148;39.604;2023-08-21T21:11:12;10.23;;;6.00;;
52031;SDS011;38044;45.148;39.604;2023-08-21T21:13:38;13.60;;;5.80;;
52031;SDS011;38044;45.148;39.604;2023-08-21T21:16:04;13.30;;;6.17;;
52031;SDS011;38044;45.148;39.604;2023-08-21T21:18:29;15.15;;;5.85;;
52031;SDS011;38044;45.148;39.604;2023-08-21T21:20:55;14.50;;;6.50;;
52031;SDS011;38044;45.148;39.604;2023-08-21T21:23:22;14.90;;;5.77;;
52031;SDS011;38044;45.148;39.604;2023-08-21T21:25:47;13.45;;;6.47;;
52031;SDS011;38044;45.148;39.604;2023-08-21T21:28:13;16.73;;;6.75;;
52031;SDS011;38044;45.148;39.604;2023-08-21T21:30:39;16.20;;;6.28;;
52031;SDS011;38044;45.148;39.604;2023-08-21T21:33:05;15.55;;;6.90;;
52031;SDS011;38044;45.148;39.604;2023-08-21T21:35:31;14.53;;;6.73;;
52031;SDS011;38044;45.148;39.604;2023-08-21T21:37:57;19.98;;;7.10;;
52031;SDS011;38044;45.148;39.604;2023-08-21T21:40:23;19.02;;;6.72;;
52031;SDS011;38044;45.148;39.604;2023-08-21T21:42:49;15.73;;;6.67;;
52031;SDS011;38044;45.148;39.604;2023-08-21T21:45:14;17.33;;;6.80;;
52031;SDS011;38044;45.148;39.604;2023-08-21T21:47:42;20.02;;;7.65;;
52031;SDS011;38044;45.148;39.604;2023-08-21T21:50:08;19.15;;;6.93;;
52031;SDS011;38044;45.148;39.604;2023-08-21T21:52:34;15.35;;;6.47;;
52031;SDS011;38044;45.148;39.604;2023-08-21T21:55:01;16.98;;;7.00;;
52031;SDS011;38044;45.148;39.604;2023-08-21T21:57:27;18.58;;;6.63;;
52031;SDS011;38044;45.148;39.604;2023-08-21T21:59:52;12.93;;;5.87;;
52031;SDS011;38044;45.148;39.604;2023-08-21T22:02:18;20.77;;;5.97;;
52031;SDS011;38044;45.148;39.604;2023-08-21T22:04:44;10.98;;;5.53;;
52031;SDS011;38044;45.148;39.604;2023-08-21T22:07:10;12.67;;;6.07;;
52031;SDS011;38044;45.148;39.604;2023-08-21T22:09:36;16.10;;;5.82;;
52031;SDS011;38044;45.148;39.604;2023-08-21T22:12:02;15.07;;;5.90;;
52031;SDS011;38044;45.148;39.604;2023-08-21T22:14:28;10.77;;;5.25;;
52031;SDS011;38044;45.148;39.604;2023-08-21T22:16:54;11.17;;;5.23;;
52031;SDS011;38044;45.148;39.604;2023-08-21T22:19:20;15.13;;;5.32;;
52031;SDS011;38044;45.148;39.604;2023-08-21T22:21:46;13.02;;;5.40;;
52031;SDS011;38044;45.148;39.604;2023-08-21T22:24:12;10.70;;;5.33;;
52031;SDS011;38044;45.148;39.604;2023-08-21T22:26:38;14.95;;;5.85;;
52031;SDS011;38044;45.148;39.604;2023-08-21T22:29:04;10.82;;;5.00;;
52031;SDS011;38044;45.148;39.604;2023-08-21T22:31:31;10.30;;;5.03;;
52031;SDS011;38044;45.148;39.604;2023-08-21T22:33:57;10.43;;;4.90;;
52031;SDS011;38044;45.148;39.604;2023-08-21T22:36:24;12.10;;;5.25;;
52031;SDS011;38044;45.148;39.604;2023-08-21T22:38:50;11.40;;;5.15;;
52031;SDS011;38044;45.148;39.604;2023-08-21T22:41:17;11.30;;;5.33;;
52031;SDS011;38044;45.148;39.604;2023-08-21T22:43:43;11.43;;;5.60;;
52031;SDS011;38044;45.148;39.604;2023-08-21T22:46:10;11.32;;;5.95;;
52031;SDS011;38044;45.148;39.604;2023-08-21T22:48:36;10.43;;;5.10;;
52031;SDS011;38044;45.148;39.604;2023-08-21T22:51:03;11.93;;;5.70;;
52031;SDS011;38044;45.148;39.604;2023-08-21T22:53:33;12.68;;;5.40;;
52031;SDS011;38044;45.148;39.604;2023-08-21T22:56:00;10.63;;;5.13;;
52031;SDS011;38044;45.148;39.604;2023-08-21T22:58:30;10.37;;;5.47;;
52031;SDS011;38044;45.148;39.604;2023-08-21T23:00:57;10.13;;;5.35;;
52031;SDS011;38044;45.148;39.604;2023-08-21T23:03:24;10.50;;;5.13;;
52031;SDS011;38044;45.148;39.604;2023-08-21T23:05:51;9.20;;;5.00;;
52031;SDS011;38044;45.148;39.604;2023-08-21T23:08:18;12.90;;;5.35;;
52031;SDS011;38044;45.148;39.604;2023-08-21T23:10:44;11.70;;;5.32;;
52031;SDS011;38044;45.148;39.604;2023-08-21T23:13:10;11.70;;;5.70;;
52031;SDS011;38044;45.148;39.604;2023-08-21T23:15:42;14.32;;;6.10;;
52031;SDS011;38044;45.148;39.604;2023-08-21T23:18:10;20.48;;;10.20;;
52031;SDS011;38044;45.148;39.604;2023-08-21T23:20:36;60.97;;;29.33;;
52031;SDS011;38044;45.148;39.604;2023-08-21T23:23:03;59.25;;;28.02;;
52031;SDS011;38044;45.148;39.604;2023-08-21T23:25:29;48.83;;;22.02;;
52031;SDS011;38044;45.148;39.604;2023-08-21T23:27:56;32.25;;;16.20;;
52031;SDS011;38044;45.148;39.604;2023-08-21T23:30:22;32.03;;;14.55;;
52031;SDS011;38044;45.148;39.604;2023-08-21T23:32:48;34.75;;;16.90;;
52031;SDS011;38044;45.148;39.604;2023-08-21T23:35:14;36.30;;;17.17;;
52031;SDS011;38044;45.148;39.604;2023-08-21T23:37:41;29.07;;;13.57;;
52031;SDS011;38044;45.148;39.604;2023-08-21T23:40:07;17.33;;;8.82;;
52031;SDS011;38044;45.148;39.604;2023-08-21T23:42:35;18.38;;;9.10;;